KVAD/VAD METAR and TAF weather

Enter ICAO airport designator
Station Type Date Time Source
KVAD METAR 2021/10/20 07:56 UTC NOAA

KVAD 200756Z AUTO 00000KT 10SM CLR 13/11 A3020 RMK AO2 SLP228 T01260113 $


Station Type Date Time Source
KVAD Decoded METAR 2021/10/20 07:56 UTC NOAA

Moody Air Force Base, GA, United States (KVAD) 30-58N 083-12W 71M
Oct 20, 2021 - 03:56 AM EDT / 2021.10.20 0756 UTC
Wind: Calm:0
Visibility: 10 mile(s):0
Sky conditions: clear
Temperature: 54.7 F (12.6 C)
Dew Point: 52.3 F (11.3 C)
Relative Humidity: 91%
Pressure (altimeter): 30.2 in. Hg (1022 hPa)
ob: KVAD 200756Z AUTO 00000KT 10SM CLR 13/11 A3020 RMK AO2 SLP228 T01260113
cycle: 8

Station Type Date Time Source
KVAD TAF 2021/10/20 08:59 UTC NOAA

TAF KVAD 200800Z 2008/2114 09003KT 9999 SKC QNH3015INS TX27/2018Z TN12/2009Z

Example: see airport list